createdAt,value
2018-04-01T00:02:33.954Z,92892.34
2018-04-01T00:17:34.665Z,92926.32
2018-04-01T00:32:39.597Z,92884.13
2018-04-01T00:47:35.588Z,92872.90
2018-04-01T01:02:42.605Z,92889.34
2018-04-01T01:17:33.868Z,92871.20
2018-04-01T01:32:36.837Z,92902.38
2018-04-01T01:47:33.304Z,92904.45
2018-04-01T02:02:34.699Z,92926.61
2018-04-01T02:17:34.070Z,92948.21
2018-04-01T02:32:34.010Z,92940.67
2018-04-01T02:47:35.972Z,92961.18
2018-04-01T03:02:34.532Z,92958.86
2018-04-01T03:17:34.235Z,92961.03
2018-04-01T03:32:36.172Z,92964.86
2018-04-01T03:47:34.187Z,92999.09
2018-04-01T04:02:34.065Z,93051.98
2018-04-01T04:17:33.752Z,93086.39
2018-04-01T04:32:33.416Z,93129.64
2018-04-01T04:47:33.326Z,93205.66
2018-04-01T05:02:33.988Z,93062.44
2018-04-01T05:17:34.483Z,93082.53
2018-04-01T05:32:33.668Z,93076.60
2018-04-01T05:47:35.869Z,93057.75
2018-04-01T06:02:33.728Z,93054.00
2018-04-01T06:17:35.111Z,93058.70
2018-04-01T06:32:34.120Z,93065.23
2018-04-01T06:47:39.054Z,93051.05
2018-04-01T07:02:34.196Z,93129.83
2018-04-01T07:17:34.353Z,93117.55
2018-04-01T07:32:34.288Z,93120.90
2018-04-01T07:47:34.073Z,93120.53
2018-04-01T08:02:33.660Z,93094.76
2018-04-01T08:17:34.621Z,93091.62
2018-04-01T08:32:38.466Z,93085.50
2018-04-01T08:47:33.820Z,93059.83
2018-04-01T09:02:33.863Z,93074.81
2018-04-01T09:17:35.830Z,93061.19
2018-04-01T09:32:33.791Z,93067.39
2018-04-01T09:47:36.755Z,93094.49
2018-04-01T10:02:36.689Z,93080.42
2018-04-01T10:17:34.075Z,93070.21
2018-04-01T10:32:34.554Z,93083.06
2018-04-01T10:47:34.048Z,93092.50
2018-04-01T11:02:34.331Z,93060.66
2018-04-01T11:17:36.120Z,93158.09
2018-04-01T11:32:34.275Z,93309.84
2018-04-01T11:47:34.301Z,93292.74
2018-04-01T12:02:37.632Z,93244.94
2018-04-01T12:17:34.956Z,93245.23
2018-04-01T12:32:36.315Z,93220.32
2018-04-01T12:47:36.504Z,93204.63
2018-04-01T13:02:34.321Z,93184.33
2018-04-01T13:17:34.809Z,93185.78
2018-04-01T13:32:34.763Z,93212.77
2018-04-01T13:47:34.719Z,93225.62
2018-04-01T14:02:34.063Z,93345.34
2018-04-01T14:17:34.064Z,93363.56
2018-04-01T14:32:33.765Z,93350.63
2018-04-01T14:47:33.691Z,93326.98
2018-04-01T15:02:34.304Z,93364.31
2018-04-01T15:17:35.528Z,93385.62
2018-04-01T15:32:33.947Z,93385.27
2018-04-01T15:47:33.972Z,93414.02
2018-04-01T16:02:34.629Z,93468.39
2018-04-01T16:17:33.799Z,93507.35
2018-04-01T16:32:36.384Z,93530.44
2018-04-01T16:47:33.913Z,93549.31
2018-04-01T17:02:37.841Z,93552.89
2018-04-01T17:17:36.559Z,93567.42
2018-04-01T17:32:38.785Z,93559.95
2018-04-01T17:47:35.480Z,93591.44
2018-04-01T18:02:36.125Z,93599.25
2018-04-01T18:17:45.468Z,93609.58
2018-04-01T18:32:45.404Z,93625.05
2018-04-01T18:47:37.200Z,93623.86
2018-04-01T19:02:39.929Z,93654.69
2018-04-01T19:17:37.445Z,93674.73
2018-04-01T19:32:36.852Z,93684.05
2018-04-01T20:02:39.501Z,93718.20
2018-04-01T20:17:35.260Z,93747.24
2018-04-01T20:32:35.066Z,93772.67
2018-04-01T20:47:40.330Z,93791.48
2018-04-01T21:02:35.357Z,93811.53
2018-04-01T21:17:35.349Z,93814.50
2018-04-01T21:32:35.373Z,93847.55
2018-04-01T21:47:36.822Z,93835.89
2018-04-01T22:02:34.629Z,93826.16
2018-04-01T22:17:34.560Z,93864.63
2018-04-01T22:32:37.227Z,93864.11
2018-04-01T22:47:37.538Z,93890.83
2018-04-01T23:02:34.877Z,93900.03
2018-04-01T23:17:36.891Z,93902.22
2018-04-01T23:32:34.889Z,93904.16
2018-04-01T23:47:37.935Z,93893.30
